Time;durP1;ratioP1;P1;durP2;ratioP2;P2;SDS_P1;SDS_P2;PMS_P1;PMS_P2;Temp;Humidity;BMP_temperature;BMP_pressure;BME280_temperature;BME280_humidity;BME280_pressure;Samples;Min_cycle;Max_cycle;Signal;HPM_P1;HPM_P2
2022/02/18 00:01:18;;;;;;;26.52;18.45;;;;;;;;;;4990581;28;20497;-69
2022/02/18 00:03:45;;;;;;;28.50;19.33;;;;;;;;;;4991533;28;20450;-69
2022/02/18 00:06:11;;;;;;;33.97;22.52;;;;;;;;;;4980902;28;20034;-68
2022/02/18 00:08:37;;;;;;;30.95;20.40;;;;;;;;;;4990073;28;20453;-69
2022/02/18 00:11:03;;;;;;;30.23;21.63;;;;;;;;;;4988634;28;20369;-68
2022/02/18 00:13:29;;;;;;;35.08;24.00;;;;;;;;;;4990259;28;20388;-69
2022/02/18 00:15:55;;;;;;;34.83;26.10;;;;;;;;;;4991125;28;20079;-68
2022/02/18 00:18:21;;;;;;;41.67;29.35;;;;;;;;;;4972209;28;20031;-70
2022/02/18 00:20:47;;;;;;;48.45;32.83;;;;;;;;;;4970362;28;20027;-68
2022/02/18 00:23:14;;;;;;;50.08;34.50;;;;;;;;;;4988898;28;20537;-69
2022/02/18 00:25:40;;;;;;;48.42;34.65;;;;;;;;;;4989720;28;20034;-69
2022/02/18 00:28:07;;;;;;;51.22;37.65;;;;;;;;;;4989893;28;20037;-69
2022/02/18 00:30:33;;;;;;;47.63;35.13;;;;;;;;;;4990516;28;20027;-68
2022/02/18 00:32:59;;;;;;;54.53;36.10;;;;;;;;;;4976481;28;20468;-70
2022/02/18 00:35:25;;;;;;;52.13;36.88;;;;;;;;;;4972465;28;20388;-70
2022/02/18 00:37:52;;;;;;;50.53;37.17;;;;;;;;;;4975793;28;20038;-69
2022/02/18 00:40:18;;;;;;;48.33;35.53;;;;;;;;;;4981484;28;20041;-70
2022/02/18 00:42:44;;;;;;;52.78;37.67;;;;;;;;;;4979495;28;20038;-69
2022/02/18 00:45:11;;;;;;;49.80;36.20;;;;;;;;;;4971270;28;20050;-69
2022/02/18 00:47:38;;;;;;;55.75;38.15;;;;;;;;;;4978626;28;20046;-68
2022/02/18 00:50:04;;;;;;;54.50;37.53;;;;;;;;;;4990570;28;20035;-68
2022/02/18 00:52:30;;;;;;;50.67;36.97;;;;;;;;;;4992414;28;20058;-69
2022/02/18 00:54:56;;;;;;;53.85;36.88;;;;;;;;;;4983870;28;20070;-69
2022/02/18 00:57:22;;;;;;;52.22;35.90;;;;;;;;;;4980043;28;20057;-69
2022/02/18 00:59:48;;;;;;;50.63;38.23;;;;;;;;;;4994047;28;20534;-69
2022/02/18 01:02:14;;;;;;;53.03;38.03;;;;;;;;;;4989676;28;20041;-70
2022/02/18 01:04:40;;;;;;;51.42;38.55;;;;;;;;;;4993949;28;20054;-69
2022/02/18 01:07:06;;;;;;;52.57;38.27;;;;;;;;;;4992110;28;20076;-68
2022/02/18 01:09:41;;;;;;;55.17;38.10;;;;;;;;;;4988905;28;20049;-69
2022/02/18 01:12:08;;;;;;;54.58;37.60;;;;;;;;;;4974797;28;20031;-69
2022/02/18 01:14:34;;;;;;;56.05;39.95;;;;;;;;;;4981804;28;20027;-69
2022/02/18 01:17:00;;;;;;;51.60;38.38;;;;;;;;;;4991818;28;20087;-68
2022/02/18 01:19:26;;;;;;;53.53;38.10;;;;;;;;;;4993816;28;20027;-69
2022/02/18 01:21:52;;;;;;;56.58;38.35;;;;;;;;;;4986075;28;20034;-69
2022/02/18 01:24:18;;;;;;;52.28;37.63;;;;;;;;;;4993943;28;20018;-69
2022/02/18 01:26:44;;;;;;;53.65;37.90;;;;;;;;;;4990161;28;20410;-69
2022/02/18 01:29:10;;;;;;;57.70;40.70;;;;;;;;;;4980885;28;20029;-68
2022/02/18 01:31:37;;;;;;;53.78;38.97;;;;;;;;;;4993520;28;20380;-68
2022/02/18 01:34:03;;;;;;;54.40;38.42;;;;;;;;;;4979242;28;20029;-69
2022/02/18 01:36:29;;;;;;;53.00;39.10;;;;;;;;;;4992831;28;20105;-68
2022/02/18 01:38:55;;;;;;;58.97;41.53;;;;;;;;;;4991079;28;20032;-69
2022/02/18 01:41:21;;;;;;;54.83;39.88;;;;;;;;;;4974655;28;20062;-69
2022/02/18 01:43:49;;;;;;;55.07;38.23;;;;;;;;;;4988252;28;20111;-69
2022/02/18 01:46:15;;;;;;;54.67;40.50;;;;;;;;;;4976539;28;20039;-68
2022/02/18 01:48:41;;;;;;;54.83;40.07;;;;;;;;;;4981122;28;20054;-68
2022/02/18 01:51:07;;;;;;;55.00;40.03;;;;;;;;;;4980341;28;20038;-69
2022/02/18 01:53:33;;;;;;;53.27;39.97;;;;;;;;;;4987436;28;20035;-68
2022/02/18 01:55:59;;;;;;;56.47;39.17;;;;;;;;;;4992535;28;20034;-68
2022/02/18 01:58:26;;;;;;;59.53;40.83;;;;;;;;;;4989900;28;20026;-68
2022/02/18 02:00:52;;;;;;;61.17;41.77;;;;;;;;;;4987373;28;20031;-68
2022/02/18 02:03:20;;;;;;;57.87;41.23;;;;;;;;;;4988774;28;20033;-68
2022/02/18 02:05:47;;;;;;;67.00;45.50;;;;;;;;;;4977662;28;20054;-68
2022/02/18 02:08:13;;;;;;;64.00;41.33;;;;;;;;;;4983133;28;20018;-68
2022/02/18 02:10:43;;;;;;;57.63;43.13;;;;;;;;;;4989508;28;20038;-68
2022/02/18 02:13:09;;;;;;;64.30;45.10;;;;;;;;;;4989454;28;20030;-68
2022/02/18 02:15:35;;;;;;;64.87;45.10;;;;;;;;;;4989653;28;20365;-68
2022/02/18 02:18:01;;;;;;;61.40;42.30;;;;;;;;;;4990459;28;20033;-68
2022/02/18 02:20:28;;;;;;;61.43;43.00;;;;;;;;;;4980257;28;20031;-68
2022/02/18 02:22:54;;;;;;;63.70;45.50;;;;;;;;;;4984768;28;20058;-68
2022/02/18 02:25:20;;;;;;;64.83;44.73;;;;;;;;;;4991706;28;20095;-68
2022/02/18 02:27:46;;;;;;;60.20;44.00;;;;;;;;;;4977637;28;20546;-68
2022/02/18 02:30:13;;;;;;;61.07;44.63;;;;;;;;;;4980897;28;20485;-68
2022/02/18 02:32:39;;;;;;;68.33;46.33;;;;;;;;;;4990700;28;20106;-68
2022/02/18 02:35:06;;;;;;;61.67;43.40;;;;;;;;;;4983382;28;20435;-68
2022/02/18 02:37:32;;;;;;;63.87;45.17;;;;;;;;;;4976611;28;20030;-68
2022/02/18 02:39:58;;;;;;;60.50;45.50;;;;;;;;;;4982647;28;20019;-67
2022/02/18 02:42:24;;;;;;;66.23;45.43;;;;;;;;;;4990642;28;20722;-68
2022/02/18 02:44:50;;;;;;;61.63;43.47;;;;;;;;;;4983680;28;20040;-68
2022/02/18 02:47:16;;;;;;;64.13;46.13;;;;;;;;;;4990340;28;20050;-68
2022/02/18 02:49:42;;;;;;;64.97;44.83;;;;;;;;;;4974516;28;20484;-67
2022/02/18 02:52:08;;;;;;;61.83;44.33;;;;;;;;;;4982247;28;20038;-67
2022/02/18 02:54:34;;;;;;;64.20;47.23;;;;;;;;;;4990063;28;20033;-68
2022/02/18 02:57:00;;;;;;;68.33;45.60;;;;;;;;;;4991136;28;20109;-68
2022/02/18 02:59:26;;;;;;;66.13;45.73;;;;;;;;;;4985312;28;20103;-68
2022/02/18 03:01:53;;;;;;;63.60;44.23;;;;;;;;;;4981936;28;20246;-67
2022/02/18 03:04:20;;;;;;;60.20;44.47;;;;;;;;;;4986393;28;20079;-67
2022/02/18 03:06:46;;;;;;;65.30;45.33;;;;;;;;;;4991164;28;20039;-67
2022/02/18 03:09:12;;;;;;;67.90;46.10;;;;;;;;;;4976096;28;20027;-68
2022/02/18 03:11:39;;;;;;;63.50;45.13;;;;;;;;;;4973965;28;20035;-68
2022/02/18 03:14:05;;;;;;;64.67;45.70;;;;;;;;;;4986390;28;20022;-67
2022/02/18 03:16:31;;;;;;;62.97;46.20;;;;;;;;;;4991513;28;20037;-67
2022/02/18 03:18:57;;;;;;;64.77;45.60;;;;;;;;;;4982804;28;20026;-67
2022/02/18 03:21:23;;;;;;;67.70;47.43;;;;;;;;;;4976748;28;20073;-68
2022/02/18 03:23:49;;;;;;;69.13;44.93;;;;;;;;;;4981470;28;20029;-68
2022/02/18 03:26:16;;;;;;;67.43;45.47;;;;;;;;;;4977149;28;20038;-68
2022/02/18 03:28:43;;;;;;;68.97;46.63;;;;;;;;;;4981372;28;20026;-68
2022/02/18 03:31:09;;;;;;;71.07;47.60;;;;;;;;;;4985947;28;20030;-68
2022/02/18 03:33:42;;;;;;;74.00;47.17;;;;;;;;;;4982179;28;20053;-68
2022/02/18 03:36:08;;;;;;;72.20;48.00;;;;;;;;;;4973749;28;20035;-68
2022/02/18 03:38:34;;;;;;;72.10;46.93;;;;;;;;;;4982824;28;20032;-69
2022/02/18 03:41:01;;;;;;;73.93;45.80;;;;;;;;;;4990653;28;20026;-68
2022/02/18 03:43:27;;;;;;;70.27;46.87;;;;;;;;;;4983474;28;20034;-68
2022/02/18 03:55:05;;;;;;;73.63;49.03;;;;;;;;;;4969814;28;20386;-68
2022/02/18 03:57:31;;;;;;;79.07;48.83;;;;;;;;;;4973281;28;20057;-68
2022/02/18 03:59:57;;;;;;;71.73;49.53;;;;;;;;;;4972744;28;20046;-68
2022/02/18 04:02:23;;;;;;;73.53;47.33;;;;;;;;;;4990768;28;20035;-68
2022/02/18 04:04:49;;;;;;;78.40;51.10;;;;;;;;;;4976539;28;20031;-67
2022/02/18 04:07:15;;;;;;;78.70;50.57;;;;;;;;;;4981722;28;20140;-68
2022/02/18 04:09:41;;;;;;;77.17;50.37;;;;;;;;;;4989752;28;20035;-68
2022/02/18 04:12:07;;;;;;;81.70;52.07;;;;;;;;;;4989300;28;20446;-68
2022/02/18 04:14:33;;;;;;;77.30;50.50;;;;;;;;;;4990014;28;20384;-68
2022/02/18 04:16:59;;;;;;;73.27;49.73;;;;;;;;;;4982857;28;20037;-68
2022/02/18 04:19:25;;;;;;;78.90;52.03;;;;;;;;;;4970659;28;20031;-69
2022/02/18 04:21:51;;;;;;;84.80;53.80;;;;;;;;;;4972458;28;20031;-68
2022/02/18 04:24:17;;;;;;;79.67;50.77;;;;;;;;;;4971780;28;20091;-68
2022/02/18 04:26:43;;;;;;;83.80;52.13;;;;;;;;;;4981428;28;20039;-68
2022/02/18 04:29:11;;;;;;;82.80;52.93;;;;;;;;;;4980106;28;20151;-68
2022/02/18 04:31:37;;;;;;;76.23;51.07;;;;;;;;;;4989032;28;20037;-68
2022/02/18 04:34:03;;;;;;;73.40;48.30;;;;;;;;;;4990875;28;20057;-69
2022/02/18 04:36:29;;;;;;;82.33;51.63;;;;;;;;;;4988521;28;20014;-68
2022/02/18 04:38:55;;;;;;;79.60;52.33;;;;;;;;;;4971549;28;20528;-69
2022/02/18 04:41:22;;;;;;;87.10;53.87;;;;;;;;;;4981990;28;20030;-69
2022/02/18 04:43:48;;;;;;;83.07;52.43;;;;;;;;;;4989303;28;20046;-69
2022/02/18 04:46:14;;;;;;;79.73;50.50;;;;;;;;;;4990075;28;20512;-69
2022/02/18 04:48:40;;;;;;;80.50;51.67;;;;;;;;;;4990364;28;20026;-69
2022/02/18 04:51:06;;;;;;;84.53;52.47;;;;;;;;;;4990855;28;20483;-69
2022/02/18 04:53:32;;;;;;;85.13;53.63;;;;;;;;;;4972105;28;20039;-68
2022/02/18 04:55:58;;;;;;;86.00;54.00;;;;;;;;;;4977611;28;20026;-69
2022/02/18 04:58:24;;;;;;;83.90;51.77;;;;;;;;;;4989773;28;20109;-69
2022/02/18 05:00:50;;;;;;;90.27;56.10;;;;;;;;;;4990235;28;20375;-69
2022/02/18 05:03:16;;;;;;;83.73;53.00;;;;;;;;;;4974585;28;20528;-69
2022/02/18 05:05:42;;;;;;;83.07;52.97;;;;;;;;;;4969767;28;20058;-68
2022/02/18 05:08:08;;;;;;;87.10;53.80;;;;;;;;;;4984927;28;20030;-68
2022/02/18 05:10:35;;;;;;;88.87;55.10;;;;;;;;;;4988114;28;20084;-68
2022/02/18 05:13:01;;;;;;;87.63;54.17;;;;;;;;;;4988081;28;20073;-68
2022/02/18 05:15:27;;;;;;;88.20;56.27;;;;;;;;;;4989129;28;20434;-68
2022/02/18 05:18:06;;;;;;;81.73;52.27;;;;;;;;;;4989218;28;20026;-68
2022/02/18 05:20:32;;;;;;;84.13;52.00;;;;;;;;;;4988105;28;20045;-68
2022/02/18 05:22:58;;;;;;;86.60;53.93;;;;;;;;;;4989427;28;20475;-68
2022/02/18 05:25:25;;;;;;;89.07;53.00;;;;;;;;;;4989558;28;20042;-68
2022/02/18 05:27:52;;;;;;;87.03;54.80;;;;;;;;;;4980719;28;20358;-68
2022/02/18 05:30:18;;;;;;;83.83;53.80;;;;;;;;;;4989541;28;20380;-68
2022/02/18 05:32:44;;;;;;;88.37;56.13;;;;;;;;;;4989345;28;20027;-68
2022/02/18 05:35:10;;;;;;;89.73;55.30;;;;;;;;;;4989738;28;20027;-68
2022/02/18 05:37:36;;;;;;;83.50;52.60;;;;;;;;;;4981919;28;20029;-68
2022/02/18 05:40:03;;;;;;;83.93;52.30;;;;;;;;;;4974011;28;20034;-68
2022/02/18 05:45:33;;;;;;;84.63;52.77;;;;;;;;;;4977362;28;20050;-68
2022/02/18 05:47:59;;;;;;;85.77;54.43;;;;;;;;;;4990391;28;20019;-67
2022/02/18 05:50:25;;;;;;;88.67;54.00;;;;;;;;;;4992307;28;20069;-68
2022/02/18 05:52:51;;;;;;;91.80;53.70;;;;;;;;;;4993559;28;20026;-68
2022/02/18 05:55:17;;;;;;;83.27;52.50;;;;;;;;;;4992101;28;20589;-67
2022/02/18 05:57:44;;;;;;;89.30;54.87;;;;;;;;;;4990520;28;20109;-68
2022/02/18 06:00:11;;;;;;;83.57;54.47;;;;;;;;;;4988635;28;20511;-68
2022/02/18 06:02:39;;;;;;;84.20;52.73;;;;;;;;;;4973578;28;20038;-67
2022/02/18 06:05:05;;;;;;;84.93;54.43;;;;;;;;;;4974929;28;20046;-68
2022/02/18 06:07:31;;;;;;;85.83;53.33;;;;;;;;;;4973821;28;20419;-68
2022/02/18 06:09:57;;;;;;;83.53;52.60;;;;;;;;;;4973188;28;20026;-68
2022/02/18 06:12:23;;;;;;;85.73;52.43;;;;;;;;;;4973486;28;20031;-68
2022/02/18 06:14:50;;;;;;;86.13;54.10;;;;;;;;;;4978066;28;20103;-68
2022/02/18 06:17:19;;;;;;;87.60;54.20;;;;;;;;;;4992295;28;20104;-68
2022/02/18 06:19:45;;;;;;;86.70;54.23;;;;;;;;;;4992849;28;20026;-68
2022/02/18 06:22:22;;;;;;;84.10;51.60;;;;;;;;;;4986921;28;20041;-68
2022/02/18 06:24:49;;;;;;;90.17;53.20;;;;;;;;;;4973253;28;20019;-68
2022/02/18 06:27:15;;;;;;;87.90;55.00;;;;;;;;;;4973412;28;20066;-68
2022/02/18 06:29:41;;;;;;;92.20;53.43;;;;;;;;;;4973514;28;20027;-69
2022/02/18 06:32:08;;;;;;;85.07;53.20;;;;;;;;;;4988322;28;20065;-69
2022/02/18 06:34:34;;;;;;;92.33;54.50;;;;;;;;;;4992504;28;20395;-68
2022/02/18 06:37:00;;;;;;;91.53;54.83;;;;;;;;;;4988033;28;20027;-69
2022/02/18 06:39:26;;;;;;;87.50;50.77;;;;;;;;;;4992838;28;20448;-68
2022/02/18 06:41:52;;;;;;;87.23;53.70;;;;;;;;;;4983420;28;20034;-68
2022/02/18 06:44:19;;;;;;;90.57;54.50;;;;;;;;;;4992756;28;20412;-68
2022/02/18 06:47:03;;;;;;;86.17;55.07;;;;;;;;;;4991190;28;20437;-69
2022/02/18 06:49:29;;;;;;;89.18;54.47;;;;;;;;;;4990214;28;20030;-68
2022/02/18 06:51:55;;;;;;;90.53;54.03;;;;;;;;;;4991427;28;20083;-69
2022/02/18 06:54:25;;;;;;;93.53;55.20;;;;;;;;;;4991288;28;20046;-68
2022/02/18 06:56:51;;;;;;;95.43;56.23;;;;;;;;;;4989141;28;20030;-69
2022/02/18 06:59:18;;;;;;;100.17;56.50;;;;;;;;;;4990511;28;20038;-69
2022/02/18 07:01:47;;;;;;;96.77;56.47;;;;;;;;;;4979904;28;20105;-69
2022/02/18 07:04:13;;;;;;;97.43;57.80;;;;;;;;;;4972348;28;20357;-69
2022/02/18 07:06:39;;;;;;;95.67;57.30;;;;;;;;;;4982688;28;20057;-69
2022/02/18 07:09:07;;;;;;;95.00;54.53;;;;;;;;;;4992385;28;20038;-69
2022/02/18 07:11:33;;;;;;;95.93;57.00;;;;;;;;;;4990292;28;20456;-69
2022/02/18 07:13:59;;;;;;;94.07;56.00;;;;;;;;;;4992080;28;20035;-69
2022/02/18 07:16:25;;;;;;;86.63;55.50;;;;;;;;;;4990464;28;20091;-69
2022/02/18 07:18:51;;;;;;;91.57;55.63;;;;;;;;;;4986764;28;20054;-69
2022/02/18 07:21:17;;;;;;;87.77;55.17;;;;;;;;;;4980679;28;20484;-69
2022/02/18 07:23:43;;;;;;;95.57;56.27;;;;;;;;;;4991919;28;20037;-69
2022/02/18 07:26:10;;;;;;;92.03;55.53;;;;;;;;;;4991017;28;20130;-69
2022/02/18 07:28:36;;;;;;;91.07;57.90;;;;;;;;;;4989377;28;20093;-69
2022/02/18 07:31:02;;;;;;;93.83;55.77;;;;;;;;;;4985482;28;20037;-68
2022/02/18 07:33:28;;;;;;;88.47;56.17;;;;;;;;;;4988515;28;20092;-69
2022/02/18 07:35:54;;;;;;;92.53;56.73;;;;;;;;;;4990117;28;20030;-68
2022/02/18 07:38:20;;;;;;;87.80;56.17;;;;;;;;;;4990975;28;20030;-69
2022/02/18 07:40:46;;;;;;;98.30;56.03;;;;;;;;;;4990532;28;20035;-68
2022/02/18 07:43:12;;;;;;;91.43;54.43;;;;;;;;;;4982965;28;20031;-68
2022/02/18 07:45:39;;;;;;;96.60;56.20;;;;;;;;;;4987802;28;20096;-68
2022/02/18 07:48:05;;;;;;;94.97;54.67;;;;;;;;;;4991057;28;20485;-67
2022/02/18 07:50:31;;;;;;;89.93;55.53;;;;;;;;;;4984129;28;20057;-68
2022/02/18 07:52:57;;;;;;;94.50;55.40;;;;;;;;;;4989956;28;20043;-67
2022/02/18 07:55:23;;;;;;;91.07;54.93;;;;;;;;;;4986215;28;20039;-68
2022/02/18 07:57:49;;;;;;;89.17;55.40;;;;;;;;;;4979694;28;20469;-69
2022/02/18 08:00:16;;;;;;;94.40;59.07;;;;;;;;;;4983188;28;20180;-69
2022/02/18 08:02:42;;;;;;;92.90;54.23;;;;;;;;;;4986896;28;20076;-70
2022/02/18 08:05:08;;;;;;;91.03;54.83;;;;;;;;;;4986802;28;20121;-69
2022/02/18 08:07:34;;;;;;;94.17;55.47;;;;;;;;;;4974232;28;20038;-69
2022/02/18 08:10:00;;;;;;;92.47;56.07;;;;;;;;;;4976124;28;20054;-69
2022/02/18 08:12:27;;;;;;;87.47;55.17;;;;;;;;;;4988664;28;20031;-70
2022/02/18 08:14:53;;;;;;;92.20;54.57;;;;;;;;;;4977731;28;20480;-69
2022/02/18 08:17:19;;;;;;;95.80;56.53;;;;;;;;;;4964340;28;20117;-69
2022/02/18 08:19:45;;;;;;;95.43;56.60;;;;;;;;;;4976461;28;20023;-69
2022/02/18 08:22:13;;;;;;;94.27;56.30;;;;;;;;;;4982241;28;20036;-69
2022/02/18 08:24:40;;;;;;;89.00;54.27;;;;;;;;;;4983591;28;20626;-69
2022/02/18 08:27:06;;;;;;;86.40;54.00;;;;;;;;;;4972704;28;20450;-68
2022/02/18 08:29:33;;;;;;;93.50;55.17;;;;;;;;;;4977831;28;20030;-68
2022/02/18 08:31:59;;;;;;;89.03;54.97;;;;;;;;;;4979292;28;20079;-68
2022/02/18 08:34:25;;;;;;;93.97;56.00;;;;;;;;;;4971127;28;20039;-68
2022/02/18 08:36:53;;;;;;;87.53;53.00;;;;;;;;;;4979671;28;20034;-68
2022/02/18 08:39:20;;;;;;;91.93;53.73;;;;;;;;;;4984902;28;20109;-68
2022/02/18 08:41:46;;;;;;;89.23;52.57;;;;;;;;;;4972010;28;20030;-69
2022/02/18 08:44:14;;;;;;;94.17;54.70;;;;;;;;;;4981020;28;20029;-68
2022/02/18 08:46:41;;;;;;;92.30;53.57;;;;;;;;;;4974830;28;20035;-69
2022/02/18 08:49:07;;;;;;;86.33;54.33;;;;;;;;;;4976199;28;20080;-69
2022/02/18 08:51:33;;;;;;;93.43;55.10;;;;;;;;;;4988461;28;20023;-69
2022/02/18 08:53:59;;;;;;;92.53;55.30;;;;;;;;;;4988109;28;20049;-68
2022/02/18 08:56:26;;;;;;;86.20;54.10;;;;;;;;;;4983681;28;20031;-71
2022/02/18 08:58:52;;;;;;;96.00;54.53;;;;;;;;;;4969485;28;20038;-68
2022/02/18 09:01:19;;;;;;;95.07;55.93;;;;;;;;;;4975933;28;20105;-68
2022/02/18 09:03:45;;;;;;;90.63;55.47;;;;;;;;;;4974489;28;20050;-68
2022/02/18 09:06:11;;;;;;;94.17;56.40;;;;;;;;;;4989011;28;20046;-69
2022/02/18 09:08:37;;;;;;;90.23;53.87;;;;;;;;;;4986428;28;20038;-68
2022/02/18 09:11:04;;;;;;;93.43;54.77;;;;;;;;;;4988994;28;20038;-68
2022/02/18 09:13:30;;;;;;;84.10;51.87;;;;;;;;;;4990359;28;20033;-68
2022/02/18 09:15:56;;;;;;;90.40;53.13;;;;;;;;;;4974844;28;20496;-67
2022/02/18 09:18:22;;;;;;;91.20;53.73;;;;;;;;;;4979471;28;20472;-68
2022/02/18 09:20:48;;;;;;;92.33;55.80;;;;;;;;;;4972324;28;20571;-70
2022/02/18 09:23:15;;;;;;;89.70;52.03;;;;;;;;;;4977778;28;20039;-68
2022/02/18 09:25:41;;;;;;;88.53;52.60;;;;;;;;;;4988088;28;20042;-69
2022/02/18 09:28:08;;;;;;;88.93;53.37;;;;;;;;;;4977704;28;20035;-69
2022/02/18 09:30:37;;;;;;;84.73;52.97;;;;;;;;;;4989617;28;20038;-69
2022/02/18 09:33:03;;;;;;;86.57;52.93;;;;;;;;;;4979443;28;20053;-69
2022/02/18 09:35:29;;;;;;;87.90;52.50;;;;;;;;;;4973658;28;20102;-69
2022/02/18 09:37:56;;;;;;;89.90;54.47;;;;;;;;;;4994561;28;20101;-69
2022/02/18 09:40:22;;;;;;;86.73;54.60;;;;;;;;;;4988502;28;20018;-69
2022/02/18 09:42:49;;;;;;;86.03;53.47;;;;;;;;;;4988354;28;20492;-69
2022/02/18 09:45:17;;;;;;;91.80;54.87;;;;;;;;;;4992850;28;20361;-69
2022/02/18 09:47:43;;;;;;;86.07;52.43;;;;;;;;;;4973325;28;20038;-69
2022/02/18 09:50:10;;;;;;;93.07;57.77;;;;;;;;;;4972024;28;20569;-69
2022/02/18 09:52:37;;;;;;;93.13;53.40;;;;;;;;;;4971900;28;20022;-69
2022/02/18 09:55:03;;;;;;;88.90;57.60;;;;;;;;;;4975962;28;20057;-69
2022/02/18 09:57:31;;;;;;;88.93;55.30;;;;;;;;;;4987601;28;20121;-68
2022/02/18 09:59:57;;;;;;;87.07;55.17;;;;;;;;;;4989367;28;20033;-69
2022/02/18 10:02:23;;;;;;;91.73;54.30;;;;;;;;;;4984431;28;20043;-69
2022/02/18 10:04:49;;;;;;;91.87;55.03;;;;;;;;;;4973027;28;20027;-69
2022/02/18 10:07:15;;;;;;;91.77;54.30;;;;;;;;;;4982244;28;20430;-69
2022/02/18 10:09:42;;;;;;;86.40;55.80;;;;;;;;;;4977725;28;20039;-68
2022/02/18 10:12:09;;;;;;;87.30;53.67;;;;;;;;;;4976205;28;20027;-68
2022/02/18 10:14:55;;;;;;;89.27;55.67;;;;;;;;;;4973694;28;20026;-68
2022/02/18 10:17:25;;;;;;;91.53;55.97;;;;;;;;;;4979560;28;20027;-68
2022/02/18 10:19:51;;;;;;;88.93;55.10;;;;;;;;;;4972687;28;20031;-68
2022/02/18 10:22:25;;;;;;;83.90;51.30;;;;;;;;;;4974255;28;20531;-68
2022/02/18 10:24:52;;;;;;;85.20;52.73;;;;;;;;;;4974379;28;20034;-68
2022/02/18 10:27:21;;;;;;;86.87;52.30;;;;;;;;;;4977103;28;20426;-68
2022/02/18 10:29:57;;;;;;;83.07;51.23;;;;;;;;;;4983790;28;20155;-69
2022/02/18 10:32:23;;;;;;;82.27;51.73;;;;;;;;;;4983296;28;20039;-69
2022/02/18 10:34:55;;;;;;;87.27;53.53;;;;;;;;;;4990629;28;20031;-68
2022/02/18 10:37:22;;;;;;;83.70;51.70;;;;;;;;;;4975458;28;20479;-69
2022/02/18 10:39:51;;;;;;;80.43;51.33;;;;;;;;;;4985848;28;20063;-68
2022/02/18 10:42:17;;;;;;;89.13;59.47;;;;;;;;;;4974253;28;20113;-68
2022/02/18 10:44:44;;;;;;;83.93;53.37;;;;;;;;;;4971029;28;20041;-68
2022/02/18 10:47:21;;;;;;;81.77;49.87;;;;;;;;;;4975006;28;20071;-68
2022/02/18 10:49:48;;;;;;;80.53;52.53;;;;;;;;;;4974448;28;20097;-68
2022/02/18 10:52:17;;;;;;;80.95;51.30;;;;;;;;;;4976548;28;20031;-70
2022/02/18 10:54:50;;;;;;;79.10;48.80;;;;;;;;;;4972543;28;20523;-69
2022/02/18 10:57:26;;;;;;;78.63;50.67;;;;;;;;;;4974522;28;20499;-69
2022/02/18 10:59:55;;;;;;;76.27;48.60;;;;;;;;;;4977076;28;20485;-69
2022/02/18 11:02:39;;;;;;;74.20;47.47;;;;;;;;;;4981632;28;20479;-68
2022/02/18 11:05:22;;;;;;;74.22;49.15;;;;;;;;;;4979094;28;20071;-68
2022/02/18 11:07:48;;;;;;;83.30;51.88;;;;;;;;;;4978587;28;20062;-69
2022/02/18 11:10:33;;;;;;;77.40;47.53;;;;;;;;;;4972365;28;20019;-69
2022/02/18 11:13:00;;;;;;;77.85;46.45;;;;;;;;;;4972801;28;20423;-70
2022/02/18 11:15:27;;;;;;;73.72;46.13;;;;;;;;;;4972913;28;20476;-69
2022/02/18 11:17:56;;;;;;;72.70;46.40;;;;;;;;;;4977049;28;20522;-69
2022/02/18 11:20:23;;;;;;;70.53;43.28;;;;;;;;;;4990055;28;20053;-69
2022/02/18 11:22:50;;;;;;;69.30;43.97;;;;;;;;;;4980751;28;20940;-69
2022/02/18 11:25:16;;;;;;;66.50;41.78;;;;;;;;;;4985249;28;20137;-70
2022/02/18 11:27:43;;;;;;;65.70;42.47;;;;;;;;;;4980357;28;20400;-70
2022/02/18 11:30:09;;;;;;;67.93;43.38;;;;;;;;;;4986523;28;20496;-70
2022/02/18 11:32:37;;;;;;;66.57;43.67;;;;;;;;;;4980701;28;20431;-68
2022/02/18 11:35:22;;;;;;;64.38;41.50;;;;;;;;;;4978036;28;20030;-70
2022/02/18 11:38:11;;;;;;;63.80;41.85;;;;;;;;;;5015798;28;20037;-69
2022/02/18 11:40:40;;;;;;;62.40;40.55;;;;;;;;;;4965816;28;20039;-69
2022/02/18 11:43:26;;;;;;;61.72;39.90;;;;;;;;;;4977424;28;20038;-69
2022/02/18 11:45:56;;;;;;;63.22;42.08;;;;;;;;;;4969985;28;20575;-69
2022/02/18 11:48:36;;;;;;;58.70;40.05;;;;;;;;;;4970866;28;20134;-68
2022/02/18 11:51:06;;;;;;;64.57;41.25;;;;;;;;;;4977151;28;20062;-68
2022/02/18 11:53:40;;;;;;;61.95;41.38;;;;;;;;;;4974189;28;20062;-69
2022/02/18 11:56:06;;;;;;;64.57;41.45;;;;;;;;;;4972071;28;20031;-69
2022/02/18 11:58:48;;;;;;;64.53;41.72;;;;;;;;;;4984427;28;20033;-68
2022/02/18 12:01:14;;;;;;;62.63;39.97;;;;;;;;;;4988102;28;20757;-69
2022/02/18 12:03:40;;;;;;;54.75;37.28;;;;;;;;;;4973060;28;20031;-69
2022/02/18 12:06:08;;;;;;;61.40;41.33;;;;;;;;;;4971166;28;20522;-69
2022/02/18 12:08:36;;;;;;;57.40;38.22;;;;;;;;;;4971161;28;20061;-68
2022/02/18 12:11:09;;;;;;;59.50;38.40;;;;;;;;;;4971684;28;20030;-70
2022/02/18 12:13:54;;;;;;;58.40;38.08;;;;;;;;;;4972487;28;20034;-70
2022/02/18 12:16:21;;;;;;;56.88;38.28;;;;;;;;;;4986948;28;20484;-69
2022/02/18 12:19:02;;;;;;;59.55;39.15;;;;;;;;;;4971072;28;20029;-69
2022/02/18 12:21:28;;;;;;;59.55;38.40;;;;;;;;;;4974549;28;20039;-69
2022/02/18 12:23:54;;;;;;;56.50;39.20;;;;;;;;;;4969733;28;20027;-70
2022/02/18 12:26:24;;;;;;;64.18;42.28;;;;;;;;;;4973658;28;20129;-69
2022/02/18 12:29:10;;;;;;;65.13;42.95;;;;;;;;;;4981211;28;20124;-69
2022/02/18 12:31:49;;;;;;;63.72;41.75;;;;;;;;;;4985960;28;20106;-69
2022/02/18 12:34:34;;;;;;;68.03;43.40;;;;;;;;;;4990605;28;20030;-69
2022/02/18 12:37:01;;;;;;;68.43;44.80;;;;;;;;;;4987359;28;20046;-69
2022/02/18 12:39:38;;;;;;;59.50;40.35;;;;;;;;;;4990373;28;20022;-68
2022/02/18 12:42:08;;;;;;;64.97;42.72;;;;;;;;;;4981830;28;20034;-69
2022/02/18 12:44:35;;;;;;;64.38;40.72;;;;;;;;;;4970641;28;20027;-69
2022/02/18 12:47:01;;;;;;;59.90;41.10;;;;;;;;;;4978543;28;20035;-69
2022/02/18 12:49:40;;;;;;;62.17;41.75;;;;;;;;;;4974492;28;20031;-69
2022/02/18 12:52:09;;;;;;;63.20;39.85;;;;;;;;;;4981145;28;20034;-69
2022/02/18 12:55:05;;;;;;;54.53;38.50;;;;;;;;;;4988697;28;20157;-69
2022/02/18 12:57:31;;;;;;;;;;;;;;;;;;4970257;28;20039;-69
2022/02/18 12:59:58;;;;;;;62.85;41.58;;;;;;;;;;4991709;28;20313;-70
2022/02/18 13:02:39;;;;;;;57.75;39.28;;;;;;;;;;4983010;28;20037;-69
2022/02/18 13:05:05;;;;;;;58.83;40.42;;;;;;;;;;4979149;28;20473;-69
2022/02/18 13:07:35;;;;;;;63.83;40.85;;;;;;;;;;4976610;28;20400;-69
2022/02/18 13:10:01;;;;;;;58.53;38.92;;;;;;;;;;4985106;28;20026;-69
2022/02/18 13:12:27;;;;;;;57.05;36.60;;;;;;;;;;4973508;28;20041;-69
2022/02/18 13:15:07;;;;;;;55.90;37.88;;;;;;;;;;4980594;28;20464;-69
2022/02/18 13:17:33;;;;;;;53.78;38.30;;;;;;;;;;4985328;28;20392;-69
2022/02/18 13:19:59;;;;;;;59.92;40.63;;;;;;;;;;4983013;28;20045;-69
2022/02/18 13:22:35;;;;;;;57.67;38.65;;;;;;;;;;4977783;28;20034;-69
2022/02/18 13:25:20;;;;;;;59.85;40.97;;;;;;;;;;4976681;28;20540;-69
2022/02/18 13:27:46;;;;;;;58.25;37.95;;;;;;;;;;4978276;28;20382;-70
2022/02/18 13:30:12;;;;;;;56.08;39.97;;;;;;;;;;4981413;28;20038;-69
2022/02/18 13:32:38;;;;;;;58.95;40.50;;;;;;;;;;4978839;28;20038;-70
2022/02/18 13:35:05;;;;;;;56.17;38.65;;;;;;;;;;4991285;28;20381;-69
2022/02/18 13:37:34;;;;;;;56.72;39.10;;;;;;;;;;4980446;28;20412;-70
2022/02/18 13:40:00;;;;;;;56.38;39.10;;;;;;;;;;4981290;28;20038;-69
2022/02/18 13:42:26;;;;;;;55.78;38.35;;;;;;;;;;4977495;28;20460;-70
2022/02/18 13:45:02;;;;;;;55.95;39.35;;;;;;;;;;4977394;28;20121;-69
2022/02/18 13:47:32;;;;;;;58.17;39.72;;;;;;;;;;4975979;28;20124;-69
2022/02/18 13:49:58;;;;;;;54.75;38.75;;;;;;;;;;4975646;28;20027;-70
2022/02/18 13:52:25;;;;;;;58.65;38.70;;;;;;;;;;4976949;28;20365;-72
2022/02/18 13:54:51;;;;;;;87.03;55.63;;;;;;;;;;4983331;28;20050;-71
2022/02/18 13:57:20;;;;;;;127.63;79.07;;;;;;;;;;4982634;28;20023;-73
2022/02/18 13:59:49;;;;;;;63.17;42.60;;;;;;;;;;4983133;28;20088;-72
2022/02/18 14:02:22;;;;;;;67.88;44.65;;;;;;;;;;4988497;28;20047;-73
2022/02/18 14:04:49;;;;;;;184.20;104.47;;;;;;;;;;4979239;28;20088;-72
2022/02/18 14:07:18;;;;;;;76.65;48.30;;;;;;;;;;4975982;28;20046;-71
2022/02/18 14:09:44;;;;;;;62.17;42.13;;;;;;;;;;4979981;28;20499;-71
2022/02/18 14:12:15;;;;;;;56.28;39.60;;;;;;;;;;4978864;28;20041;-70
2022/02/18 14:14:41;;;;;;;58.83;40.78;;;;;;;;;;4976852;28;20414;-70
2022/02/18 14:17:08;;;;;;;58.42;40.85;;;;;;;;;;4980166;28;20045;-70
2022/02/18 14:19:50;;;;;;;58.17;40.38;;;;;;;;;;4972858;28;20038;-70
2022/02/18 14:22:28;;;;;;;60.55;40.03;;;;;;;;;;4983889;28;20105;-70
2022/02/18 14:24:54;;;;;;;55.92;39.53;;;;;;;;;;4990137;28;20034;-70
2022/02/18 14:27:21;;;;;;;58.75;40.70;;;;;;;;;;4979501;28;20082;-70
2022/02/18 14:29:58;;;;;;;59.25;40.20;;;;;;;;;;4979293;28;20042;-70
2022/02/18 14:32:25;;;;;;;61.72;40.28;;;;;;;;;;4982941;28;20109;-69